sensor_id;sensor_type;location;lat;lon;timestamp;pressure;altitude;pressure_sealevel;temperature;humidity
21942;BME280;11135;54.192;15.670;2022-08-26T00:04:35;101581.19;;;24.60;65.86
21942;BME280;11135;54.192;15.670;2022-08-26T00:10:39;101566.72;;;24.56;65.81
21942;BME280;11135;54.192;15.670;2022-08-26T00:16:44;101565.81;;;24.56;65.68
21942;BME280;11135;54.192;15.670;2022-08-26T00:22:49;101563.47;;;24.51;65.55
21942;BME280;11135;54.192;15.670;2022-08-26T00:28:52;101555.56;;;24.47;66.15
21942;BME280;11135;54.192;15.670;2022-08-26T00:34:57;101553.94;;;24.44;65.95
21942;BME280;11135;54.192;15.670;2022-08-26T00:41:01;101560.25;;;24.46;65.97
21942;BME280;11135;54.192;15.670;2022-08-26T00:47:14;101552.44;;;24.40;65.83
21942;BME280;11135;54.192;15.670;2022-08-26T00:53:23;101553.06;;;24.34;65.90
21942;BME280;11135;54.192;15.670;2022-08-26T00:59:29;101549.53;;;24.32;65.73
21942;BME280;11135;54.192;15.670;2022-08-26T01:05:34;101551.16;;;24.35;65.75
21942;BME280;11135;54.192;15.670;2022-08-26T01:11:40;101545.88;;;24.32;65.69
21942;BME280;11135;54.192;15.670;2022-08-26T01:17:44;101545.22;;;24.28;65.98
21942;BME280;11135;54.192;15.670;2022-08-26T01:23:51;101534.88;;;24.30;65.61
21942;BME280;11135;54.192;15.670;2022-08-26T01:29:59;101536.88;;;24.28;65.53
21942;BME280;11135;54.192;15.670;2022-08-26T01:36:03;101531.91;;;24.22;65.90
21942;BME280;11135;54.192;15.670;2022-08-26T01:42:12;101533.81;;;24.21;65.88
21942;BME280;11135;54.192;15.670;2022-08-26T01:48:22;101536.84;;;24.18;65.93
21942;BME280;11135;54.192;15.670;2022-08-26T01:54:27;101537.00;;;24.17;65.78
21942;BME280;11135;54.192;15.670;2022-08-26T02:00:32;101528.94;;;24.14;65.76
21942;BME280;11135;54.192;15.670;2022-08-26T02:06:37;101531.00;;;24.12;65.44
21942;BME280;11135;54.192;15.670;2022-08-26T02:12:41;101524.84;;;24.08;65.45
21942;BME280;11135;54.192;15.670;2022-08-26T02:18:47;101521.47;;;24.05;65.72
21942;BME280;11135;54.192;15.670;2022-08-26T02:24:56;101522.47;;;24.03;65.40
21942;BME280;11135;54.192;15.670;2022-08-26T02:31:00;101514.50;;;24.20;65.12
21942;BME280;11135;54.192;15.670;2022-08-26T02:37:09;101513.59;;;24.29;64.36
21942;BME280;11135;54.192;15.670;2022-08-26T02:43:12;101508.91;;;24.29;64.66
21942;BME280;11135;54.192;15.670;2022-08-26T02:49:16;101502.03;;;24.24;64.56
21942;BME280;11135;54.192;15.670;2022-08-26T02:55:22;101496.56;;;24.03;65.21
21942;BME280;11135;54.192;15.670;2022-08-26T03:01:28;101497.94;;;24.09;65.22
21942;BME280;11135;54.192;15.670;2022-08-26T03:07:33;101492.94;;;24.12;65.07
21942;BME280;11135;54.192;15.670;2022-08-26T03:13:38;101486.81;;;24.09;65.05
21942;BME280;11135;54.192;15.670;2022-08-26T03:19:42;101485.56;;;23.92;65.23
21942;BME280;11135;54.192;15.670;2022-08-26T03:25:48;101487.34;;;23.83;65.59
21942;BME280;11135;54.192;15.670;2022-08-26T03:31:53;101485.09;;;23.77;65.83
21942;BME280;11135;54.192;15.670;2022-08-26T03:37:57;101483.19;;;23.78;65.84
21942;BME280;11135;54.192;15.670;2022-08-26T03:44:03;101484.97;;;23.79;65.87
21942;BME280;11135;54.192;15.670;2022-08-26T03:50:11;101485.09;;;23.77;65.66
21942;BME280;11135;54.192;15.670;2022-08-26T03:56:16;101485.53;;;23.72;65.86
21942;BME280;11135;54.192;15.670;2022-08-26T04:02:19;101483.94;;;23.70;65.75
21942;BME280;11135;54.192;15.670;2022-08-26T04:08:24;101488.59;;;23.69;65.96
21942;BME280;11135;54.192;15.670;2022-08-26T04:14:29;101488.72;;;23.68;65.72
21942;BME280;11135;54.192;15.670;2022-08-26T04:20:33;101491.94;;;23.63;65.62
21942;BME280;11135;54.192;15.670;2022-08-26T04:26:38;101486.91;;;23.57;65.60
21942;BME280;11135;54.192;15.670;2022-08-26T04:32:43;101477.97;;;23.54;65.91
21942;BME280;11135;54.192;15.670;2022-08-26T04:38:47;101487.84;;;23.58;66.27
21942;BME280;11135;54.192;15.670;2022-08-26T04:44:53;101485.41;;;23.53;66.40
21942;BME280;11135;54.192;15.670;2022-08-26T04:50:57;101483.81;;;23.51;66.84
21942;BME280;11135;54.192;15.670;2022-08-26T04:57:02;101484.25;;;23.46;67.09
21942;BME280;11135;54.192;15.670;2022-08-26T05:03:07;101474.00;;;23.47;67.42
21942;BME280;11135;54.192;15.670;2022-08-26T05:09:12;101489.38;;;23.51;67.50
21942;BME280;11135;54.192;15.670;2022-08-26T05:15:16;101483.25;;;23.57;67.65
21942;BME280;11135;54.192;15.670;2022-08-26T05:21:22;101489.28;;;23.62;67.71
21942;BME280;11135;54.192;15.670;2022-08-26T05:27:28;101500.28;;;23.63;67.87
21942;BME280;11135;54.192;15.670;2022-08-26T05:33:31;101498.66;;;23.61;68.34
21942;BME280;11135;54.192;15.670;2022-08-26T05:39:37;101491.94;;;23.63;68.50
21942;BME280;11135;54.192;15.670;2022-08-26T05:45:44;101492.22;;;23.60;68.97
21942;BME280;11135;54.192;15.670;2022-08-26T05:51:48;101487.25;;;23.64;68.78
21942;BME280;11135;54.192;15.670;2022-08-26T05:57:53;101486.22;;;23.65;69.17
21942;BME280;11135;54.192;15.670;2022-08-26T06:03:58;101489.75;;;23.67;69.32
21942;BME280;11135;54.192;15.670;2022-08-26T06:10:03;59315.84;;;-145.26;100.00
21942;BME280;11135;54.192;15.670;2022-08-26T06:16:29;59315.84;;;-145.26;100.00
21942;BME280;11135;54.192;15.670;2022-08-26T06:22:34;59315.84;;;-145.26;100.00
21942;BME280;11135;54.192;15.670;2022-08-26T06:28:56;59315.84;;;-145.26;100.00
21942;BME280;11135;54.192;15.670;2022-08-26T06:35:01;59315.84;;;-145.26;100.00
21942;BME280;11135;54.192;15.670;2022-08-26T06:41:07;59315.84;;;-145.26;100.00
21942;BME280;11135;54.192;15.670;2022-08-26T06:47:12;101483.25;;;23.97;70.04
21942;BME280;11135;54.192;15.670;2022-08-26T06:53:17;101483.28;;;24.07;70.03
21942;BME280;11135;54.192;15.670;2022-08-26T06:59:21;101483.28;;;24.07;70.03
21942;BME280;11135;54.192;15.670;2022-08-26T07:05:25;101485.31;;;24.14;69.63
21942;BME280;11135;54.192;15.670;2022-08-26T07:11:35;101491.22;;;24.21;69.83
21942;BME280;11135;54.192;15.670;2022-08-26T07:17:39;101492.13;;;24.31;69.67
21942;BME280;11135;54.192;15.670;2022-08-26T07:23:44;101498.97;;;24.27;69.18
21942;BME280;11135;54.192;15.670;2022-08-26T07:29:54;101492.13;;;24.31;69.42
21942;BME280;11135;54.192;15.670;2022-08-26T07:35:59;101487.31;;;24.33;69.28
21942;BME280;11135;54.192;15.670;2022-08-26T07:42:05;101490.34;;;24.30;69.21
21942;BME280;11135;54.192;15.670;2022-08-26T07:48:11;101483.03;;;24.39;69.79
21942;BME280;11135;54.192;15.670;2022-08-26T07:54:14;101479.53;;;24.46;69.52
21942;BME280;11135;54.192;15.670;2022-08-26T08:00:20;101490.81;;;24.45;68.89
21942;BME280;11135;54.192;15.670;2022-08-26T08:06:26;101488.03;;;24.45;68.48
21942;BME280;11135;54.192;15.670;2022-08-26T08:12:30;101486.13;;;24.45;68.46
21942;BME280;11135;54.192;15.670;2022-08-26T08:18:35;101479.69;;;24.45;68.16
21942;BME280;11135;54.192;15.670;2022-08-26T08:24:40;101477.50;;;24.48;68.34
21942;BME280;11135;54.192;15.670;2022-08-26T08:30:43;101470.16;;;24.47;68.21
21942;BME280;11135;54.192;15.670;2022-08-26T08:36:47;101467.22;;;24.49;68.37
21942;BME280;11135;54.192;15.670;2022-08-26T08:43:02;101459.47;;;24.52;68.51
21942;BME280;11135;54.192;15.670;2022-08-26T08:49:08;101452.72;;;24.55;68.77
21942;BME280;11135;54.192;15.670;2022-08-26T08:55:14;101447.16;;;24.55;68.62
21942;BME280;11135;54.192;15.670;2022-08-26T09:01:29;101452.28;;;24.59;68.50
21942;BME280;11135;54.192;15.670;2022-08-26T09:07:37;101453.00;;;24.62;69.33
21942;BME280;11135;54.192;15.670;2022-08-26T09:13:48;101460.03;;;24.66;69.16
21942;BME280;11135;54.192;15.670;2022-08-26T09:20:02;101447.00;;;24.66;68.92
21942;BME280;11135;54.192;15.670;2022-08-26T09:26:14;101446.84;;;24.68;68.63
21942;BME280;11135;54.192;15.670;2022-08-26T09:32:22;101444.22;;;24.66;68.24
21942;BME280;11135;54.192;15.670;2022-08-26T09:38:32;101442.19;;;24.68;67.79
21942;BME280;11135;54.192;15.670;2022-08-26T09:44:54;101438.78;;;24.65;67.76
21942;BME280;11135;54.192;15.670;2022-08-26T09:51:00;101442.44;;;24.65;66.94
21942;BME280;11135;54.192;15.670;2022-08-26T09:57:16;101432.03;;;24.67;68.66
21942;BME280;11135;54.192;15.670;2022-08-26T10:03:25;101428.38;;;24.76;69.06
21942;BME280;11135;54.192;15.670;2022-08-26T10:09:35;101421.34;;;24.82;68.49
21942;BME280;11135;54.192;15.670;2022-08-26T10:15:45;101425.00;;;24.82;67.87
21942;BME280;11135;54.192;15.670;2022-08-26T10:21:58;101418.09;;;24.86;68.18
21942;BME280;11135;54.192;15.670;2022-08-26T10:28:08;101412.06;;;24.91;67.34
21942;BME280;11135;54.192;15.670;2022-08-26T10:34:16;101411.34;;;24.89;66.46
21942;BME280;11135;54.192;15.670;2022-08-26T10:40:24;101405.94;;;24.87;65.93
21942;BME280;11135;54.192;15.670;2022-08-26T10:46:34;101406.50;;;24.91;66.13
21942;BME280;11135;54.192;15.670;2022-08-26T10:52:53;101411.63;;;24.96;65.86
21942;BME280;11135;54.192;15.670;2022-08-26T10:59:06;101407.97;;;24.95;66.55
21942;BME280;11135;54.192;15.670;2022-08-26T11:05:15;101401.69;;;24.93;66.53
21942;BME280;11135;54.192;15.670;2022-08-26T11:11:42;101402.81;;;24.90;67.39
21942;BME280;11135;54.192;15.670;2022-08-26T11:17:57;101393.44;;;24.92;67.18
21942;BME280;11135;54.192;15.670;2022-08-26T11:24:02;101385.84;;;24.94;67.17
21942;BME280;11135;54.192;15.670;2022-08-26T11:30:37;101368.97;;;24.95;67.93
21942;BME280;11135;54.192;15.670;2022-08-26T11:36:55;101368.50;;;25.00;68.00
21942;BME280;11135;54.192;15.670;2022-08-26T11:43:03;101350.81;;;25.01;68.65
21942;BME280;11135;54.192;15.670;2022-08-26T11:49:09;101345.34;;;24.99;69.46
21942;BME280;11135;54.192;15.670;2022-08-26T11:55:14;101337.16;;;24.98;69.07
21942;BME280;11135;54.192;15.670;2022-08-26T12:01:25;101328.81;;;24.98;69.51
21942;BME280;11135;54.192;15.670;2022-08-26T12:07:34;101315.91;;;24.97;69.47
21942;BME280;11135;54.192;15.670;2022-08-26T12:13:53;101311.22;;;24.97;69.84
21942;BME280;11135;54.192;15.670;2022-08-26T12:19:57;101308.75;;;24.94;70.23
21942;BME280;11135;54.192;15.670;2022-08-26T12:26:07;101304.06;;;24.95;70.50
21942;BME280;11135;54.192;15.670;2022-08-26T12:32:15;101299.34;;;24.95;70.33
21942;BME280;11135;54.192;15.670;2022-08-26T12:38:19;59315.84;;;-145.26;100.00
21942;BME280;11135;54.192;15.670;2022-08-26T12:44:42;59315.84;;;-145.26;100.00
21942;BME280;11135;54.192;15.670;2022-08-26T12:50:56;59315.84;;;-145.26;100.00
21942;BME280;11135;54.192;15.670;2022-08-26T12:57:08;59315.84;;;-145.26;100.00
21942;BME280;11135;54.192;15.670;2022-08-26T13:03:43;59315.84;;;-145.26;100.00
21942;BME280;11135;54.192;15.670;2022-08-26T13:09:48;59315.84;;;-145.26;100.00
21942;BME280;11135;54.192;15.670;2022-08-26T13:15:52;59315.84;;;-145.26;100.00
21942;BME280;11135;54.192;15.670;2022-08-26T13:21:58;59315.84;;;-145.26;100.00
21942;BME280;11135;54.192;15.670;2022-08-26T13:28:02;59315.84;;;-145.26;100.00
21942;BME280;11135;54.192;15.670;2022-08-26T13:34:07;59315.84;;;-145.26;100.00
21942;BME280;11135;54.192;15.670;2022-08-26T13:40:12;59315.84;;;-145.26;100.00
21942;BME280;11135;54.192;15.670;2022-08-26T13:46:16;59315.84;;;-145.26;100.00
21942;BME280;11135;54.192;15.670;2022-08-26T13:52:21;59315.84;;;-145.26;100.00
21942;BME280;11135;54.192;15.670;2022-08-26T13:58:32;59315.84;;;-145.26;100.00
21942;BME280;11135;54.192;15.670;2022-08-26T14:04:36;59315.84;;;-145.26;100.00
21942;BME280;11135;54.192;15.670;2022-08-26T14:10:40;59315.84;;;-145.26;100.00
21942;BME280;11135;54.192;15.670;2022-08-26T14:16:45;59315.84;;;-145.26;100.00
21942;BME280;11135;54.192;15.670;2022-08-26T14:23:01;59315.84;;;-145.26;100.00
21942;BME280;11135;54.192;15.670;2022-08-26T14:29:14;59315.84;;;-145.26;100.00
21942;BME280;11135;54.192;15.670;2022-08-26T14:35:23;59315.84;;;-145.26;100.00
21942;BME280;11135;54.192;15.670;2022-08-26T14:41:28;59315.84;;;-145.26;100.00
21942;BME280;11135;54.192;15.670;2022-08-26T14:47:35;59315.84;;;-145.26;100.00
21942;BME280;11135;54.192;15.670;2022-08-26T14:53:40;59315.84;;;-145.26;100.00
21942;BME280;11135;54.192;15.670;2022-08-26T15:00:01;59315.84;;;-145.26;100.00
21942;BME280;11135;54.192;15.670;2022-08-26T15:06:06;59315.84;;;-145.26;100.00
21942;BME280;11135;54.192;15.670;2022-08-26T15:12:12;59315.84;;;-145.26;100.00
21942;BME280;11135;54.192;15.670;2022-08-26T15:18:15;59315.84;;;-145.26;100.00
21942;BME280;11135;54.192;15.670;2022-08-26T15:24:20;59315.84;;;-145.26;100.00
21942;BME280;11135;54.192;15.670;2022-08-26T15:30:25;59315.84;;;-145.26;100.00
21942;BME280;11135;54.192;15.670;2022-08-26T15:36:29;59315.84;;;-145.26;100.00
21942;BME280;11135;54.192;15.670;2022-08-26T15:42:33;59315.84;;;-145.26;100.00
21942;BME280;11135;54.192;15.670;2022-08-26T15:48:38;59315.84;;;-145.26;100.00
21942;BME280;11135;54.192;15.670;2022-08-26T15:54:42;59315.84;;;-145.26;100.00
21942;BME280;11135;54.192;15.670;2022-08-26T16:00:46;59315.84;;;-145.26;100.00
21942;BME280;11135;54.192;15.670;2022-08-26T16:06:53;59315.84;;;-145.26;100.00
21942;BME280;11135;54.192;15.670;2022-08-26T16:12:57;59315.84;;;-145.26;100.00
21942;BME280;11135;54.192;15.670;2022-08-26T16:19:00;59315.84;;;-145.26;100.00
21942;BME280;11135;54.192;15.670;2022-08-26T16:25:10;59315.84;;;-145.26;100.00
21942;BME280;11135;54.192;15.670;2022-08-26T16:31:15;59315.84;;;-145.26;100.00
21942;BME280;11135;54.192;15.670;2022-08-26T16:37:22;59315.84;;;-145.26;100.00
21942;BME280;11135;54.192;15.670;2022-08-26T16:43:27;59315.84;;;-145.26;100.00
21942;BME280;11135;54.192;15.670;2022-08-26T16:49:31;59315.84;;;-145.26;100.00
21942;BME280;11135;54.192;15.670;2022-08-26T16:55:35;59315.84;;;-145.26;100.00
21942;BME280;11135;54.192;15.670;2022-08-26T17:01:40;59315.84;;;-145.26;100.00
21942;BME280;11135;54.192;15.670;2022-08-26T17:07:44;59315.84;;;-145.26;100.00
21942;BME280;11135;54.192;15.670;2022-08-26T17:13:47;59315.84;;;-145.26;100.00
21942;BME280;11135;54.192;15.670;2022-08-26T17:19:52;59315.84;;;-145.26;100.00
21942;BME280;11135;54.192;15.670;2022-08-26T17:25:56;59315.84;;;-145.26;100.00
21942;BME280;11135;54.192;15.670;2022-08-26T17:31:59;59315.84;;;-145.26;100.00
21942;BME280;11135;54.192;15.670;2022-08-26T17:38:04;59315.84;;;-145.26;100.00
21942;BME280;11135;54.192;15.670;2022-08-26T17:44:09;59315.84;;;-145.26;100.00
21942;BME280;11135;54.192;15.670;2022-08-26T17:50:15;59315.84;;;-145.26;100.00
21942;BME280;11135;54.192;15.670;2022-08-26T17:56:23;59315.84;;;-145.26;100.00
21942;BME280;11135;54.192;15.670;2022-08-26T18:02:27;59315.84;;;-145.26;100.00
21942;BME280;11135;54.192;15.670;2022-08-26T18:08:32;59315.84;;;-145.26;100.00
21942;BME280;11135;54.192;15.670;2022-08-26T18:14:37;59315.84;;;-145.26;100.00
21942;BME280;11135;54.192;15.670;2022-08-26T18:20:42;59315.84;;;-145.26;100.00
21942;BME280;11135;54.192;15.670;2022-08-26T18:26:53;59315.84;;;-145.26;100.00
21942;BME280;11135;54.192;15.670;2022-08-26T18:32:58;59315.84;;;-145.26;100.00
21942;BME280;11135;54.192;15.670;2022-08-26T18:39:03;59315.84;;;-145.26;100.00
21942;BME280;11135;54.192;15.670;2022-08-26T18:45:08;59315.84;;;-145.26;100.00
21942;BME280;11135;54.192;15.670;2022-08-26T18:51:20;59315.84;;;-145.26;100.00
21942;BME280;11135;54.192;15.670;2022-08-26T18:57:24;59315.84;;;-145.26;100.00
21942;BME280;11135;54.192;15.670;2022-08-26T19:03:28;59315.84;;;-145.26;100.00
21942;BME280;11135;54.192;15.670;2022-08-26T19:09:33;101094.03;;;24.24;70.24
21942;BME280;11135;54.192;15.670;2022-08-26T19:15:37;101089.16;;;24.26;70.57
21942;BME280;11135;54.192;15.670;2022-08-26T19:21:45;101088.75;;;24.31;70.00
21942;BME280;11135;54.192;15.670;2022-08-26T19:27:51;101087.41;;;24.35;69.56
21942;BME280;11135;54.192;15.670;2022-08-26T19:33:55;101082.28;;;24.30;68.55
21942;BME280;11135;54.192;15.670;2022-08-26T19:39:59;101088.38;;;24.44;67.86
21942;BME280;11135;54.192;15.670;2022-08-26T19:46:10;101084.34;;;24.56;67.00
21942;BME280;11135;54.192;15.670;2022-08-26T19:52:14;101077.19;;;24.53;66.45
21942;BME280;11135;54.192;15.670;2022-08-26T19:58:17;101070.78;;;24.71;66.03
21942;BME280;11135;54.192;15.670;2022-08-26T20:04:22;101081.41;;;24.75;65.46
21942;BME280;11135;54.192;15.670;2022-08-26T20:10:28;101075.94;;;24.83;65.08
21942;BME280;11135;54.192;15.670;2022-08-26T20:16:32;101084.13;;;24.85;64.70
21942;BME280;11135;54.192;15.670;2022-08-26T20:22:37;101085.56;;;24.89;64.05
21942;BME280;11135;54.192;15.670;2022-08-26T20:28:40;101078.78;;;24.92;63.84
21942;BME280;11135;54.192;15.670;2022-08-26T20:34:44;101081.91;;;24.88;63.81
21942;BME280;11135;54.192;15.670;2022-08-26T20:40:49;101076.16;;;24.90;63.51
21942;BME280;11135;54.192;15.670;2022-08-26T20:46:57;101084.34;;;24.92;63.36
21942;BME280;11135;54.192;15.670;2022-08-26T20:53:01;101086.75;;;24.86;63.29
21942;BME280;11135;54.192;15.670;2022-08-26T20:59:06;101091.78;;;24.83;63.73
21942;BME280;11135;54.192;15.670;2022-08-26T21:05:09;101091.59;;;24.67;63.75
21942;BME280;11135;54.192;15.670;2022-08-26T21:11:14;101090.72;;;24.66;64.31
21942;BME280;11135;54.192;15.670;2022-08-26T21:17:20;101094.59;;;24.55;64.17
21942;BME280;11135;54.192;15.670;2022-08-26T21:23:24;101085.28;;;24.47;64.70
21942;BME280;11135;54.192;15.670;2022-08-26T21:29:30;101087.81;;;24.40;65.02
21942;BME280;11135;54.192;15.670;2022-08-26T21:35:35;101087.56;;;24.34;65.00
21942;BME280;11135;54.192;15.670;2022-08-26T21:41:39;101079.63;;;24.29;64.90
21942;BME280;11135;54.192;15.670;2022-08-26T21:47:43;101076.84;;;24.29;65.04
21942;BME280;11135;54.192;15.670;2022-08-26T21:53:49;101080.59;;;24.20;65.53
21942;BME280;11135;54.192;15.670;2022-08-26T21:59:54;101074.03;;;24.11;65.79
21942;BME280;11135;54.192;15.670;2022-08-26T22:05:58;101076.66;;;24.13;65.41
21942;BME280;11135;54.192;15.670;2022-08-26T22:12:06;101071.50;;;24.18;64.85
21942;BME280;11135;54.192;15.670;2022-08-26T22:18:10;101070.34;;;24.20;64.38
21942;BME280;11135;54.192;15.670;2022-08-26T22:24:14;101063.75;;;24.21;63.68
21942;BME280;11135;54.192;15.670;2022-08-26T22:30:20;101051.03;;;24.19;63.16
21942;BME280;11135;54.192;15.670;2022-08-26T22:36:25;101054.22;;;24.24;62.57
21942;BME280;11135;54.192;15.670;2022-08-26T22:42:29;101044.81;;;24.35;62.22
21942;BME280;11135;54.192;15.670;2022-08-26T22:48:35;101063.41;;;24.34;60.98
21942;BME280;11135;54.192;15.670;2022-08-26T22:54:39;101045.53;;;24.37;60.50
21942;BME280;11135;54.192;15.670;2022-08-26T23:00:43;101042.03;;;24.35;60.62
21942;BME280;11135;54.192;15.670;2022-08-26T23:06:48;101032.81;;;24.34;60.47
21942;BME280;11135;54.192;15.670;2022-08-26T23:12:52;101024.31;;;24.26;60.01
21942;BME280;11135;54.192;15.670;2022-08-26T23:18:56;101021.59;;;24.16;59.78
21942;BME280;11135;54.192;15.670;2022-08-26T23:25:01;101021.03;;;24.13;60.00
21942;BME280;11135;54.192;15.670;2022-08-26T23:31:08;101024.84;;;24.12;59.35
21942;BME280;11135;54.192;15.670;2022-08-26T23:37:12;101017.69;;;24.09;59.53
21942;BME280;11135;54.192;15.670;2022-08-26T23:43:17;101016.41;;;24.03;59.92
21942;BME280;11135;54.192;15.670;2022-08-26T23:49:21;101013.06;;;24.00;59.81
21942;BME280;11135;54.192;15.670;2022-08-26T23:55:25;101014.97;;;23.99;59.41
